createdAt,value
2017-08-13T00:00:21.208Z,99088.31
2017-08-13T00:02:52.999Z,99074.73
2017-08-13T00:05:24.795Z,99079.29
2017-08-13T00:07:56.337Z,99068.45
2017-08-13T00:10:31.429Z,99071.17
2017-08-13T00:13:03.278Z,99071.56
2017-08-13T00:15:35.776Z,99073.59
2017-08-13T00:18:08.284Z,99043.67
2017-08-13T00:20:41.284Z,99067.56
2017-08-13T00:23:12.936Z,99065.97
2017-08-13T00:25:47.534Z,99057.95
2017-08-13T00:28:22.123Z,99059.98
2017-08-13T00:30:57.982Z,99052.22
2017-08-13T00:33:37.445Z,99011.15
2017-08-13T00:36:10.632Z,99051.93
2017-08-13T00:38:45.169Z,99017.72
2017-08-13T00:41:21.911Z,99023.06
2017-08-13T00:44:06.677Z,99003.40
2017-08-13T00:46:39.726Z,99047.52
2017-08-13T00:49:12.966Z,99042.29
2017-08-13T00:51:51.414Z,99044.17
2017-08-13T00:54:24.806Z,99026.88
2017-08-13T00:56:58.559Z,99047.45
2017-08-13T00:59:35.273Z,99046.12
2017-08-13T01:02:10.955Z,99048.21
2017-08-13T01:04:50.439Z,99010.79
2017-08-13T01:07:31.994Z,99058.53
2017-08-13T01:10:08.348Z,99044.17
2017-08-13T01:12:41.095Z,98974.94
2017-08-13T01:15:13.095Z,99031.06
2017-08-13T01:17:44.614Z,99029.48
2017-08-13T01:20:22.281Z,99033.23
2017-08-13T01:22:55.758Z,99012.98
2017-08-13T01:25:35.147Z,98979.91
2017-08-13T01:28:07.310Z,99010.96
2017-08-13T01:30:41.622Z,99015.37
2017-08-13T01:33:14.070Z,99015.44
2017-08-13T01:35:50.021Z,98994.02
2017-08-13T01:38:24.107Z,98948.67
2017-08-13T01:40:57.688Z,98990.05
2017-08-13T01:49:38.586Z,99037.34
2017-08-13T01:55:06.722Z,99024.03
2017-08-13T01:57:38.821Z,99041.68
2017-08-13T02:00:10.694Z,99034.97
2017-08-13T02:02:42.708Z,99044.86
2017-08-13T02:05:14.549Z,99043.92
2017-08-13T02:07:48.101Z,99048.61
2017-08-13T02:10:23.631Z,99027.89
2017-08-13T02:12:56.064Z,99059.25
2017-08-13T02:15:36.027Z,99052.58
2017-08-13T02:18:09.426Z,99024.10
2017-08-13T02:20:41.115Z,99048.97
2017-08-13T02:23:13.172Z,99048.25
2017-08-13T02:25:45.219Z,99033.59
2017-08-13T02:28:18.178Z,99042.37
2017-08-13T02:30:50.006Z,99027.89
2017-08-13T02:33:22.041Z,99069.19
2017-08-13T02:35:54.066Z,99069.04
2017-08-13T02:41:08.400Z,99069.55
2017-08-13T02:43:40.242Z,99067.41
2017-08-13T02:46:14.515Z,99043.09
2017-08-13T02:48:46.086Z,99066.52
2017-08-13T02:51:18.421Z,99054.85
2017-08-13T02:53:50.621Z,99065.43
2017-08-13T02:59:18.771Z,99071.56
2017-08-13T03:01:56.179Z,99065.43
2017-08-13T03:04:34.191Z,99101.92
2017-08-13T03:07:05.869Z,99084.02
2017-08-13T03:09:38.572Z,99065.72
2017-08-13T03:12:11.700Z,99072.00
2017-08-13T03:14:44.424Z,99072.11
2017-08-13T03:17:16.393Z,99075.17
2017-08-13T03:19:50.674Z,99079.03
2017-08-13T03:22:22.439Z,99077.55
2017-08-13T03:24:53.721Z,99071.56
2017-08-13T03:27:30.705Z,99083.33
2017-08-13T03:30:09.862Z,99063.80
2017-08-13T03:32:43.260Z,99083.62
2017-08-13T03:35:16.674Z,99084.56
2017-08-13T03:37:51.811Z,99085.90
2017-08-13T03:40:23.494Z,99067.66
2017-08-13T03:42:55.935Z,99077.55
2017-08-13T03:45:33.042Z,99076.77
2017-08-13T03:48:05.934Z,99074.02
2017-08-13T03:50:37.664Z,99056.37
2017-08-13T03:53:11.978Z,99086.77
2017-08-13T03:55:44.151Z,99066.11
2017-08-13T03:58:15.897Z,99038.79
2017-08-13T04:00:47.996Z,99090.45
2017-08-13T04:03:19.585Z,99073.95
2017-08-13T04:05:51.454Z,99089.77
2017-08-13T04:08:24.023Z,99092.10
2017-08-13T04:10:56.957Z,99094.52
2017-08-13T04:13:32.126Z,99088.67
2017-08-13T04:16:03.979Z,99088.28
2017-08-13T04:18:39.790Z,99094.81
2017-08-13T04:21:11.032Z,99086.11
2017-08-13T04:23:44.842Z,99066.72
2017-08-13T04:26:18.671Z,99086.51
2017-08-13T04:28:53.139Z,99101.99
2017-08-13T04:31:24.638Z,99107.19
2017-08-13T04:34:03.037Z,99105.85
2017-08-13T04:36:38.398Z,99109.61
2017-08-13T04:39:12.938Z,99091.88
2017-08-13T04:41:46.538Z,99111.13
2017-08-13T04:44:22.853Z,99087.29
2017-08-13T04:46:55.310Z,99110.84
2017-08-13T04:49:33.868Z,99121.38
2017-08-13T04:52:06.844Z,99124.88
2017-08-13T04:54:43.012Z,99098.97
2017-08-13T04:57:14.639Z,99120.77
2017-08-13T04:59:46.349Z,99102.89
2017-08-13T05:02:18.607Z,99123.51
2017-08-13T05:04:50.774Z,99118.56
2017-08-13T05:07:22.504Z,99132.45
2017-08-13T05:09:57.124Z,99139.53
2017-08-13T05:12:32.212Z,99129.90
2017-08-13T05:15:04.837Z,99121.08
2017-08-13T05:17:37.233Z,99132.17
2017-08-13T05:20:09.244Z,99135.57
2017-08-13T05:22:41.489Z,99136.08
2017-08-13T05:25:13.929Z,99137.09
2017-08-13T05:27:53.082Z,99105.23
2017-08-13T05:30:29.878Z,99140.52
2017-08-13T05:33:02.274Z,99136.11
2017-08-13T05:35:36.177Z,99124.23
2017-08-13T05:38:09.092Z,99147.53
2017-08-13T05:40:41.652Z,99145.66
2017-08-13T05:43:13.920Z,99142.39
2017-08-13T05:45:46.478Z,99166.20
2017-08-13T05:48:17.983Z,99153.09
2017-08-13T05:50:50.163Z,99154.28
2017-08-13T05:53:24.685Z,99157.75
2017-08-13T05:55:56.655Z,99161.36
2017-08-13T05:58:31.055Z,99173.23
2017-08-13T06:01:03.513Z,99145.90
2017-08-13T06:03:36.541Z,99148.28
2017-08-13T06:06:09.104Z,99141.85
2017-08-13T06:08:41.686Z,99159.52
2017-08-13T06:11:13.674Z,99167.54
2017-08-13T06:13:45.362Z,99146.27
2017-08-13T06:16:17.025Z,99169.56
2017-08-13T06:18:48.337Z,99167.39
2017-08-13T06:21:20.087Z,99147.70
2017-08-13T06:23:52.570Z,99163.31
2017-08-13T06:26:24.517Z,99168.33
2017-08-13T06:28:56.183Z,99165.01
2017-08-13T06:31:31.329Z,99166.31
2017-08-13T06:34:03.955Z,99172.27
2017-08-13T06:36:36.624Z,99158.33
2017-08-13T06:39:09.755Z,99185.49
2017-08-13T06:41:41.963Z,99191.34
2017-08-13T06:44:14.243Z,99179.27
2017-08-13T06:46:46.407Z,99205.36
2017-08-13T06:49:18.863Z,99182.38
2017-08-13T06:51:51.489Z,99198.06
2017-08-13T06:54:23.555Z,99205.29
2017-08-13T06:57:04.115Z,99203.81
2017-08-13T06:59:36.849Z,99179.95
2017-08-13T07:02:11.024Z,99210.06
2017-08-13T07:04:43.827Z,99214.06
2017-08-13T07:07:16.693Z,99218.47
2017-08-13T07:09:51.201Z,99218.30
2017-08-13T07:12:22.792Z,99205.58
2017-08-13T07:14:55.677Z,99194.55
2017-08-13T07:17:32.531Z,99204.06
2017-08-13T07:20:09.194Z,99214.03
2017-08-13T07:22:40.861Z,99203.55
2017-08-13T07:25:12.454Z,99215.05
2017-08-13T07:27:44.484Z,99207.27
2017-08-13T07:30:18.157Z,99232.05
2017-08-13T07:32:50.604Z,99233.25
2017-08-13T07:35:22.709Z,99234.05
2017-08-13T07:37:54.785Z,99234.05
2017-08-13T07:40:29.153Z,99241.13
2017-08-13T07:43:01.158Z,99233.82
2017-08-13T07:45:38.286Z,99213.70
2017-08-13T07:48:10.546Z,99246.00
2017-08-13T07:50:42.696Z,99256.55
2017-08-13T07:53:14.724Z,99261.50
2017-08-13T07:55:47.474Z,99258.83
2017-08-13T07:58:19.996Z,99251.61
2017-08-13T08:00:52.245Z,99259.38
2017-08-13T08:03:24.132Z,99264.58
2017-08-13T08:05:56.049Z,99273.39
2017-08-13T08:08:29.655Z,99262.76
2017-08-13T08:11:01.297Z,99282.60
2017-08-13T08:13:33.746Z,99270.48
2017-08-13T08:16:07.020Z,99298.50
2017-08-13T08:18:39.410Z,99304.64
2017-08-13T08:21:11.339Z,99298.85
2017-08-13T08:23:43.100Z,99305.69
2017-08-13T08:26:39.952Z,99273.05
2017-08-13T08:29:13.006Z,99307.50
2017-08-13T08:31:46.004Z,99302.80
2017-08-13T08:34:18.565Z,99316.32
2017-08-13T08:36:51.941Z,99301.86
2017-08-13T08:39:23.752Z,99312.96
2017-08-13T08:41:57.271Z,99317.23
2017-08-13T08:44:31.373Z,99320.84
2017-08-13T08:47:03.618Z,99317.63
2017-08-13T08:49:36.044Z,99316.75
2017-08-13T08:52:08.844Z,99324.16
2017-08-13T08:54:41.829Z,99329.73
2017-08-13T08:57:14.331Z,99331.86
2017-08-13T08:59:46.706Z,99337.75
2017-08-13T09:02:20.882Z,99330.37
2017-08-13T09:04:54.505Z,99341.38
2017-08-13T09:07:28.620Z,99346.97
2017-08-13T09:10:00.732Z,99346.28
2017-08-13T09:12:34.399Z,99275.88
2017-08-13T09:15:06.173Z,99330.34
2017-08-13T09:17:38.045Z,99324.98
2017-08-13T09:20:09.886Z,99345.70
2017-08-13T09:22:47.169Z,99316.80
2017-08-13T09:25:21.308Z,99298.73
2017-08-13T09:27:53.117Z,99346.08
2017-08-13T09:30:25.344Z,99341.94
2017-08-13T09:32:59.912Z,99350.73
2017-08-13T09:35:33.825Z,99342.42
2017-08-13T09:38:06.073Z,99344.70
2017-08-13T09:40:37.837Z,99346.44
2017-08-13T09:43:10.022Z,99357.94
2017-08-13T09:45:42.624Z,99339.47
2017-08-13T09:48:16.730Z,99348.28
2017-08-13T09:50:50.451Z,99347.49
2017-08-13T09:53:29.980Z,99348.92
2017-08-13T09:56:03.701Z,99344.76
2017-08-13T09:58:35.579Z,99328.88
2017-08-13T10:01:07.608Z,99359.67
2017-08-13T10:03:40.004Z,99348.83
2017-08-13T10:06:11.906Z,99352.70
2017-08-13T10:08:45.193Z,99358.59
2017-08-13T10:11:16.771Z,99354.25
2017-08-13T10:13:48.540Z,99359.23
2017-08-13T10:16:20.265Z,99342.96
2017-08-13T10:18:53.918Z,99363.08
2017-08-13T10:21:25.475Z,99355.95
2017-08-13T10:23:58.972Z,99364.41
2017-08-13T10:26:32.779Z,99368.93
2017-08-13T10:29:04.482Z,99368.39
2017-08-13T10:31:36.200Z,99363.84
2017-08-13T10:34:08.133Z,99360.87
2017-08-13T10:36:39.743Z,99360.33
2017-08-13T10:39:11.046Z,99368.03
2017-08-13T10:41:42.652Z,99367.09
2017-08-13T10:44:14.384Z,99381.41
2017-08-13T10:46:46.079Z,99368.67
2017-08-13T10:49:17.959Z,99387.30
2017-08-13T10:51:50.503Z,99373.77
2017-08-13T10:54:21.852Z,99371.59
2017-08-13T10:56:53.403Z,99389.98
2017-08-13T10:59:28.852Z,99390.38
2017-08-13T11:02:00.844Z,99385.67
2017-08-13T11:04:34.689Z,99350.89
2017-08-13T11:07:08.405Z,99386.44
2017-08-13T11:09:39.881Z,99382.11
2017-08-13T11:12:11.198Z,99359.17
2017-08-13T11:14:43.099Z,99364.13
2017-08-13T11:17:14.479Z,99368.80
2017-08-13T11:19:46.127Z,99329.11
2017-08-13T11:22:17.869Z,99376.44
2017-08-13T11:24:49.176Z,99387.53
2017-08-13T11:27:20.740Z,99383.91
2017-08-13T11:29:52.071Z,99378.63
2017-08-13T11:32:23.802Z,99363.20
2017-08-13T11:34:55.818Z,99383.41
2017-08-13T11:37:29.605Z,99363.78
2017-08-13T11:40:02.709Z,99381.72
2017-08-13T11:42:36.723Z,99353.69
2017-08-13T11:45:08.447Z,99375.14
2017-08-13T11:47:51.517Z,99374.09
2017-08-13T11:50:25.777Z,99368.35
2017-08-13T11:52:58.711Z,99359.42
2017-08-13T11:55:33.375Z,99364.66
2017-08-13T11:58:06.336Z,99371.61
2017-08-13T12:00:39.519Z,99368.45
2017-08-13T12:03:12.583Z,99366.83
2017-08-13T12:05:45.359Z,99373.95
2017-08-13T12:08:17.444Z,99373.30
2017-08-13T12:10:51.505Z,99372.17
2017-08-13T12:13:23.755Z,99349.17
2017-08-13T12:15:56.632Z,99364.83
2017-08-13T12:18:28.324Z,99367.25
2017-08-13T12:21:00.200Z,99368.98
2017-08-13T12:23:34.372Z,99370.83
2017-08-13T12:26:08.280Z,99352.28
2017-08-13T12:28:40.293Z,99371.30
2017-08-13T12:31:12.531Z,99344.46
2017-08-13T12:33:43.981Z,99357.12
2017-08-13T12:36:16.048Z,99365.60
2017-08-13T12:38:47.546Z,99359.48
2017-08-13T12:41:20.400Z,99359.19
2017-08-13T12:43:53.791Z,99351.08
2017-08-13T12:46:25.296Z,99364.03
2017-08-13T12:48:57.357Z,99325.64
2017-08-13T12:51:30.388Z,99361.63
2017-08-13T12:54:02.131Z,99343.44
2017-08-13T12:56:34.942Z,99330.67
2017-08-13T12:59:07.533Z,99333.48
2017-08-13T13:01:38.928Z,99347.22
2017-08-13T13:04:10.464Z,99359.40
2017-08-13T13:06:42.860Z,99346.37
2017-08-13T13:09:16.348Z,99358.27
2017-08-13T13:11:48.488Z,99355.11
2017-08-13T13:14:19.888Z,99353.53
2017-08-13T13:16:51.539Z,99324.17
2017-08-13T13:19:33.620Z,99355.34
2017-08-13T13:22:05.209Z,99356.56
2017-08-13T13:24:38.513Z,99345.67
2017-08-13T13:27:10.916Z,99356.11
2017-08-13T13:29:42.727Z,99358.02
2017-08-13T13:32:14.715Z,99328.05
2017-08-13T13:34:49.171Z,99355.69
2017-08-13T13:37:23.464Z,99353.42
2017-08-13T13:39:58.495Z,99331.12
2017-08-13T13:42:34.044Z,99312.47
2017-08-13T13:45:10.170Z,99347.39
2017-08-13T13:47:43.679Z,99355.64
2017-08-13T13:50:22.297Z,99351.69
2017-08-13T13:52:54.325Z,99351.09
2017-08-13T13:55:29.490Z,99351.23
2017-08-13T13:58:04.497Z,99355.16
2017-08-13T14:00:37.516Z,99354.70
2017-08-13T14:03:09.074Z,99354.84
2017-08-13T14:05:40.867Z,99355.94
2017-08-13T14:08:12.572Z,99355.56
2017-08-13T14:10:44.098Z,99357.64
2017-08-13T14:13:16.345Z,99348.05
2017-08-13T14:15:48.515Z,99353.70
2017-08-13T14:28:10.371Z,99356.90
2017-08-13T14:30:49.631Z,99352.48
2017-08-13T14:33:22.470Z,99365.14
2017-08-13T14:35:54.739Z,99349.06
2017-08-13T14:38:28.661Z,99381.59
2017-08-13T14:41:00.455Z,99315.15
2017-08-13T14:43:32.959Z,99381.22
2017-08-13T14:46:04.363Z,99365.09
2017-08-13T14:48:36.317Z,99380.07
2017-08-13T14:51:08.878Z,99373.75
2017-08-13T14:53:41.401Z,99383.80
2017-08-13T14:56:13.365Z,99379.42
2017-08-13T14:58:45.251Z,99376.43
2017-08-13T15:01:17.071Z,99379.42
2017-08-13T15:03:49.212Z,99347.88
2017-08-13T15:06:20.903Z,99386.11
2017-08-13T15:08:52.854Z,99388.14
2017-08-13T15:11:24.999Z,99380.61
2017-08-13T15:13:56.378Z,99382.52
2017-08-13T15:16:31.462Z,99378.49
2017-08-13T15:19:03.409Z,99383.02
2017-08-13T15:21:35.525Z,99373.11
2017-08-13T15:24:07.088Z,99382.27
2017-08-13T15:26:39.029Z,99376.14
2017-08-13T15:29:11.258Z,99378.87
2017-08-13T15:31:42.830Z,99368.97
2017-08-13T15:34:15.808Z,99378.22
2017-08-13T15:36:47.894Z,99330.38
2017-08-13T15:39:20.786Z,99369.28
2017-08-13T15:41:52.476Z,99374.55
2017-08-13T15:44:24.573Z,99399.14
2017-08-13T15:46:56.103Z,99382.97
2017-08-13T15:49:32.126Z,99378.00
2017-08-13T15:52:03.597Z,99372.34
2017-08-13T15:54:35.331Z,99335.14
2017-08-13T15:57:07.162Z,99372.84
2017-08-13T15:59:38.583Z,99374.48
2017-08-13T16:02:10.292Z,99386.14
2017-08-13T16:04:41.914Z,99372.05
2017-08-13T16:10:53.499Z,99356.34
2017-08-13T16:20:38.535Z,99371.82
2017-08-13T16:23:10.334Z,99379.09
2017-08-13T16:25:42.544Z,99358.13
2017-08-13T16:28:14.241Z,99393.58
2017-08-13T16:30:45.572Z,99404.88
2017-08-13T16:33:17.049Z,99370.45
2017-08-13T16:35:48.351Z,99389.94
2017-08-13T16:38:19.803Z,99374.41
2017-08-13T16:40:51.688Z,99373.06
2017-08-13T16:43:23.574Z,99368.64
2017-08-13T16:45:55.103Z,99374.80
2017-08-13T16:48:26.755Z,99377.23
2017-08-13T16:50:58.309Z,99381.39
2017-08-13T16:53:32.979Z,99379.30
2017-08-13T16:56:04.379Z,99375.95
2017-08-13T17:02:21.681Z,99390.45
2017-08-13T17:04:53.494Z,99382.66
2017-08-13T17:07:27.657Z,99386.19
2017-08-13T17:10:00.189Z,99389.50
2017-08-13T17:12:34.972Z,99383.80
2017-08-13T17:15:07.670Z,99387.42
2017-08-13T17:17:39.804Z,99375.93
2017-08-13T17:20:11.232Z,99386.38
2017-08-13T17:24:11.171Z,99375.39
2017-08-13T17:27:03.403Z,99315.33
2017-08-13T17:33:42.082Z,99378.25
2017-08-13T17:39:30.267Z,99402.72
2017-08-13T17:42:03.093Z,99387.73
2017-08-13T17:47:28.355Z,99380.26
2017-08-13T17:50:00.309Z,99356.55
2017-08-13T17:52:35.923Z,99344.67
2017-08-13T18:01:29.632Z,99386.67
2017-08-13T18:06:53.428Z,99405.75
2017-08-13T18:09:25.350Z,99398.69
2017-08-13T18:11:59.111Z,99375.73
2017-08-13T18:14:32.779Z,99390.86
2017-08-13T18:17:04.471Z,99395.23
2017-08-13T18:19:36.916Z,99406.63
2017-08-13T18:22:09.065Z,99386.80
2017-08-13T18:24:41.664Z,99413.36
2017-08-13T18:27:13.458Z,99393.68
2017-08-13T18:29:45.227Z,99400.30
2017-08-13T18:32:19.972Z,99412.89
2017-08-13T18:35:13.370Z,99418.39
2017-08-13T18:37:47.573Z,99419.48
2017-08-13T18:40:20.629Z,99427.52
2017-08-13T18:42:52.110Z,99429.80
2017-08-13T18:45:24.292Z,99437.03
2017-08-13T18:47:57.458Z,99437.19
2017-08-13T18:50:31.250Z,99435.16
2017-08-13T18:53:04.751Z,99442.69
2017-08-13T18:55:36.355Z,99440.41
2017-08-13T18:58:08.341Z,99447.11
2017-08-13T19:00:40.290Z,99458.50
2017-08-13T19:03:12.470Z,99446.31
2017-08-13T19:05:45.666Z,99463.64
2017-08-13T19:08:17.469Z,99465.13
2017-08-13T19:10:49.366Z,99471.42
2017-08-13T19:13:20.819Z,99478.66
2017-08-13T19:23:42.054Z,99472.91
2017-08-13T19:26:27.767Z,99481.52
2017-08-13T19:29:00.182Z,99478.16
2017-08-13T19:31:37.017Z,99487.20
2017-08-13T19:34:08.643Z,99481.05
2017-08-13T19:36:41.614Z,99476.38
2017-08-13T19:39:14.712Z,99473.55
2017-08-13T19:41:46.812Z,99484.85
2017-08-13T19:44:18.504Z,99487.45
2017-08-13T19:46:50.024Z,99484.81
2017-08-13T19:49:21.688Z,99487.63
2017-08-13T19:51:53.845Z,99488.09
2017-08-13T19:54:30.176Z,99482.34
2017-08-13T19:57:04.895Z,99482.48
2017-08-13T19:59:37.782Z,99497.25
2017-08-13T20:02:11.155Z,99474.98
2017-08-13T20:04:58.488Z,99490.77
2017-08-13T20:07:35.026Z,99492.39
2017-08-13T20:10:09.295Z,99495.61
2017-08-13T20:12:40.861Z,99483.55
2017-08-13T20:15:13.238Z,99492.35
2017-08-13T20:17:44.705Z,99494.78
2017-08-13T20:20:17.526Z,99498.14
2017-08-13T20:22:50.212Z,99500.56
2017-08-13T20:25:22.441Z,99501.25
2017-08-13T20:27:55.242Z,99493.78
2017-08-13T20:30:29.300Z,99497.66
2017-08-13T20:33:02.555Z,99508.69
2017-08-13T20:35:34.985Z,99479.92
2017-08-13T20:38:06.543Z,99506.45
2017-08-13T20:40:39.240Z,99515.05
2017-08-13T20:43:11.146Z,99512.09
2017-08-13T20:45:42.664Z,99513.03
2017-08-13T20:48:14.281Z,99515.70
2017-08-13T20:50:46.598Z,99517.19
2017-08-13T20:53:18.069Z,99513.31
2017-08-13T20:55:49.426Z,99513.06
2017-08-13T20:58:21.766Z,99526.19
2017-08-13T21:00:53.199Z,99523.83
2017-08-13T21:03:25.421Z,99514.19
2017-08-13T21:05:58.716Z,99503.06
2017-08-13T21:08:33.548Z,99523.89
2017-08-13T21:11:07.278Z,99514.94
2017-08-13T21:22:33.552Z,99529.98
2017-08-13T21:25:13.324Z,99538.70
2017-08-13T21:27:46.372Z,99538.08
2017-08-13T21:30:18.539Z,99559.08
2017-08-13T21:32:51.192Z,99538.45
2017-08-13T21:35:22.897Z,99548.27
2017-08-13T21:37:55.047Z,99543.34
2017-08-13T21:40:29.155Z,99538.91
2017-08-13T21:43:03.685Z,99543.26
2017-08-13T21:45:35.983Z,99542.20
2017-08-13T21:48:08.127Z,99539.62
2017-08-13T21:50:40.093Z,99512.73
2017-08-13T21:53:12.477Z,99548.50
2017-08-13T21:55:45.619Z,99538.85
2017-08-13T21:58:18.852Z,99552.94
2017-08-13T22:00:51.472Z,99556.70
2017-08-13T22:03:31.397Z,99504.14
2017-08-13T22:06:04.367Z,99551.12
2017-08-13T22:08:37.638Z,99559.57
2017-08-13T22:11:10.505Z,99558.77
2017-08-13T22:13:42.021Z,99547.50
2017-08-13T22:16:14.460Z,99559.06
2017-08-13T22:18:46.717Z,99556.70
2017-08-13T22:21:18.666Z,99558.44
2017-08-13T22:23:50.125Z,99558.41
2017-08-13T22:26:21.856Z,99564.06
2017-08-13T22:28:54.567Z,99569.16
2017-08-13T22:31:30.666Z,99567.97
2017-08-13T22:34:02.393Z,99567.56
2017-08-13T22:36:34.976Z,99542.40
2017-08-13T22:39:06.793Z,99564.06
2017-08-13T22:41:39.838Z,99575.48
2017-08-13T22:44:13.158Z,99565.17
2017-08-13T22:46:44.715Z,99574.85
